Pays
Station

 

Conditions  météo  pour  Marfa  -  Etats-Unis    Etats-Unis

  
26 °C
    
 
 

METAR pour Marfa :

KMRF 211756Z AUTO 21004KT 10SM CLR 26/11 A3011 RMK AO2 SLP139 6//// T02560111 10256 20111 58008

 

Voici le bulletin pour Marfa - Etats-Unis.
 
Le bulletin a été fait il y a 43 heures et 36 minutes, à 17:56 UTC .
Le vent soufflait à la vitesse de 2.1 mètres par seconde de Sud/Sud-ouest (210°).
 
La température était de 26 °C, avec un point de rosée à 11 °C.
La température ressentie était de 26 °C.
 
La pression atmosphérique était de 1020 hPa.
L'humidité relative était de 39.1%.
 
Le ciel était clair.
 
La visibilité globale était de 16.1 kilomètres.
 

 
 
 

Pays :   A   B   C   D   E   F   G   H   I   J   K   L   M   N   O   P   Q   R   S   T   U   V   W   Y   Z

 

Partenaires :  Info Météo avec Met'info
Météo Marine avec MeteoMarine.net
Infos Site  |  Infos Légales  |  Crédits  |  Confidentialité
Contactez-nous  |  Ajouter aux favoris
© 2013-2018 METAR - Tous droits réservés